sensor_id;sensor_type;location;lat;lon;timestamp;temperature;humidity
10431;DHT22;5262;59.958;17.726;2023-12-07T00:01:26;-11.20;99.90
10431;DHT22;5262;59.958;17.726;2023-12-07T00:03:51;-11.10;99.90
10431;DHT22;5262;59.958;17.726;2023-12-07T00:06:17;-11.20;99.90
10431;DHT22;5262;59.958;17.726;2023-12-07T00:08:42;-11.20;99.90
10431;DHT22;5262;59.958;17.726;2023-12-07T00:11:08;-11.30;99.90
10431;DHT22;5262;59.958;17.726;2023-12-07T00:13:33;-11.30;99.90
10431;DHT22;5262;59.958;17.726;2023-12-07T00:15:59;-11.30;99.90
10431;DHT22;5262;59.958;17.726;2023-12-07T00:18:25;-11.30;99.90
10431;DHT22;5262;59.958;17.726;2023-12-07T00:20:50;-11.30;99.90
10431;DHT22;5262;59.958;17.726;2023-12-07T00:23:16;-11.30;99.90
10431;DHT22;5262;59.958;17.726;2023-12-07T00:25:41;-11.30;99.90
10431;DHT22;5262;59.958;17.726;2023-12-07T00:28:07;-11.20;99.90
10431;DHT22;5262;59.958;17.726;2023-12-07T00:30:33;-11.20;99.90
10431;DHT22;5262;59.958;17.726;2023-12-07T00:32:59;-11.20;99.90
10431;DHT22;5262;59.958;17.726;2023-12-07T00:35:25;-11.20;99.90
10431;DHT22;5262;59.958;17.726;2023-12-07T00:37:55;-11.20;99.90
10431;DHT22;5262;59.958;17.726;2023-12-07T00:40:21;-11.20;99.90
10431;DHT22;5262;59.958;17.726;2023-12-07T00:42:47;-11.20;99.90
10431;DHT22;5262;59.958;17.726;2023-12-07T00:45:13;-11.30;99.90
10431;DHT22;5262;59.958;17.726;2023-12-07T00:47:39;-11.20;99.90
10431;DHT22;5262;59.958;17.726;2023-12-07T00:50:05;-11.30;99.90
10431;DHT22;5262;59.958;17.726;2023-12-07T00:52:31;-11.30;99.90
10431;DHT22;5262;59.958;17.726;2023-12-07T00:54:57;-11.20;99.90
10431;DHT22;5262;59.958;17.726;2023-12-07T00:57:23;-11.20;99.90
10431;DHT22;5262;59.958;17.726;2023-12-07T00:59:48;-11.10;99.90
10431;DHT22;5262;59.958;17.726;2023-12-07T01:02:14;-11.10;99.90
10431;DHT22;5262;59.958;17.726;2023-12-07T01:04:40;-11.10;99.90
10431;DHT22;5262;59.958;17.726;2023-12-07T01:07:05;-11.10;99.90
10431;DHT22;5262;59.958;17.726;2023-12-07T01:09:31;-11.10;99.90
10431;DHT22;5262;59.958;17.726;2023-12-07T01:11:57;-11.10;99.90
10431;DHT22;5262;59.958;17.726;2023-12-07T01:14:23;-11.10;99.90
10431;DHT22;5262;59.958;17.726;2023-12-07T01:16:49;-11.10;99.90
10431;DHT22;5262;59.958;17.726;2023-12-07T01:19:15;-11.10;99.90
10431;DHT22;5262;59.958;17.726;2023-12-07T01:21:41;-11.00;99.90
10431;DHT22;5262;59.958;17.726;2023-12-07T01:24:07;-11.10;99.90
10431;DHT22;5262;59.958;17.726;2023-12-07T01:26:33;-11.10;99.90
10431;DHT22;5262;59.958;17.726;2023-12-07T01:28:59;-11.00;99.90
10431;DHT22;5262;59.958;17.726;2023-12-07T01:31:24;-11.00;99.90
10431;DHT22;5262;59.958;17.726;2023-12-07T01:33:50;-10.90;99.90
10431;DHT22;5262;59.958;17.726;2023-12-07T01:36:15;-11.00;99.90
10431;DHT22;5262;59.958;17.726;2023-12-07T01:38:41;-10.90;99.90
10431;DHT22;5262;59.958;17.726;2023-12-07T01:41:09;-10.80;99.90
10431;DHT22;5262;59.958;17.726;2023-12-07T01:43:34;-10.80;99.90
10431;DHT22;5262;59.958;17.726;2023-12-07T01:46:00;-10.80;99.90
10431;DHT22;5262;59.958;17.726;2023-12-07T01:48:26;-10.70;99.90
10431;DHT22;5262;59.958;17.726;2023-12-07T01:50:54;-10.60;99.90
10431;DHT22;5262;59.958;17.726;2023-12-07T01:53:22;-10.60;99.90
10431;DHT22;5262;59.958;17.726;2023-12-07T01:55:49;-10.60;99.90
10431;DHT22;5262;59.958;17.726;2023-12-07T01:58:17;-10.60;99.90
10431;DHT22;5262;59.958;17.726;2023-12-07T02:00:45;-10.60;99.90
10431;DHT22;5262;59.958;17.726;2023-12-07T02:03:12;-10.50;99.90
10431;DHT22;5262;59.958;17.726;2023-12-07T02:05:38;-10.50;99.90
10431;DHT22;5262;59.958;17.726;2023-12-07T02:08:06;-10.50;99.90
10431;DHT22;5262;59.958;17.726;2023-12-07T02:10:32;-10.50;99.90
10431;DHT22;5262;59.958;17.726;2023-12-07T02:12:57;-10.40;99.90
10431;DHT22;5262;59.958;17.726;2023-12-07T02:15:23;-10.40;99.90
10431;DHT22;5262;59.958;17.726;2023-12-07T02:18:19;-10.30;99.90
10431;DHT22;5262;59.958;17.726;2023-12-07T02:21:01;-10.40;99.90
10431;DHT22;5262;59.958;17.726;2023-12-07T02:23:32;-10.30;99.90
10431;DHT22;5262;59.958;17.726;2023-12-07T02:26:02;-10.20;99.90
10431;DHT22;5262;59.958;17.726;2023-12-07T02:28:28;-10.30;99.90
10431;DHT22;5262;59.958;17.726;2023-12-07T02:30:53;-10.30;99.90
10431;DHT22;5262;59.958;17.726;2023-12-07T02:33:19;-10.30;99.90
10431;DHT22;5262;59.958;17.726;2023-12-07T02:35:45;-10.20;99.90
10431;DHT22;5262;59.958;17.726;2023-12-07T02:38:11;-10.20;99.90
10431;DHT22;5262;59.958;17.726;2023-12-07T02:40:37;-10.30;99.90
10431;DHT22;5262;59.958;17.726;2023-12-07T02:43:04;-10.20;99.90
10431;DHT22;5262;59.958;17.726;2023-12-07T02:45:30;-10.20;99.90
10431;DHT22;5262;59.958;17.726;2023-12-07T02:47:57;-10.10;99.90
10431;DHT22;5262;59.958;17.726;2023-12-07T02:50:23;-10.20;99.90
10431;DHT22;5262;59.958;17.726;2023-12-07T02:52:49;-10.10;99.90
10431;DHT22;5262;59.958;17.726;2023-12-07T02:55:15;-10.10;99.90
10431;DHT22;5262;59.958;17.726;2023-12-07T02:57:40;-10.10;99.90
10431;DHT22;5262;59.958;17.726;2023-12-07T03:00:07;-10.10;99.90
10431;DHT22;5262;59.958;17.726;2023-12-07T03:02:37;-10.00;99.90
10431;DHT22;5262;59.958;17.726;2023-12-07T03:05:03;-10.00;99.90
10431;DHT22;5262;59.958;17.726;2023-12-07T03:07:30;-9.90;99.90
10431;DHT22;5262;59.958;17.726;2023-12-07T03:09:55;-9.90;99.90
10431;DHT22;5262;59.958;17.726;2023-12-07T03:12:21;-10.00;99.90
10431;DHT22;5262;59.958;17.726;2023-12-07T03:14:46;-9.90;99.90
10431;DHT22;5262;59.958;17.726;2023-12-07T03:17:13;-9.90;99.90
10431;DHT22;5262;59.958;17.726;2023-12-07T03:19:39;-9.90;99.90
10431;DHT22;5262;59.958;17.726;2023-12-07T03:22:05;-9.80;99.90
10431;DHT22;5262;59.958;17.726;2023-12-07T03:24:34;-9.80;99.90
10431;DHT22;5262;59.958;17.726;2023-12-07T03:26:59;-9.90;99.90
10431;DHT22;5262;59.958;17.726;2023-12-07T03:29:25;-9.80;99.90
10431;DHT22;5262;59.958;17.726;2023-12-07T03:31:51;-9.80;99.90
10431;DHT22;5262;59.958;17.726;2023-12-07T03:34:17;-9.70;99.90
10431;DHT22;5262;59.958;17.726;2023-12-07T03:36:45;-9.70;99.90
10431;DHT22;5262;59.958;17.726;2023-12-07T03:39:11;-9.70;99.90
10431;DHT22;5262;59.958;17.726;2023-12-07T03:41:37;-9.70;99.90
10431;DHT22;5262;59.958;17.726;2023-12-07T03:44:02;-9.70;99.90
10431;DHT22;5262;59.958;17.726;2023-12-07T03:46:28;-9.70;99.90
10431;DHT22;5262;59.958;17.726;2023-12-07T03:48:53;-9.60;99.90
10431;DHT22;5262;59.958;17.726;2023-12-07T03:51:19;-9.60;99.90
10431;DHT22;5262;59.958;17.726;2023-12-07T03:53:45;-9.60;99.90
10431;DHT22;5262;59.958;17.726;2023-12-07T03:56:10;-9.50;99.90
10431;DHT22;5262;59.958;17.726;2023-12-07T03:58:36;-9.50;99.90
10431;DHT22;5262;59.958;17.726;2023-12-07T04:01:02;-9.60;99.90
10431;DHT22;5262;59.958;17.726;2023-12-07T04:03:27;-9.50;99.90
10431;DHT22;5262;59.958;17.726;2023-12-07T04:05:53;-9.40;99.90
10431;DHT22;5262;59.958;17.726;2023-12-07T04:08:18;-9.30;99.90
10431;DHT22;5262;59.958;17.726;2023-12-07T04:10:44;-9.30;99.90
10431;DHT22;5262;59.958;17.726;2023-12-07T04:13:22;-9.40;99.90
10431;DHT22;5262;59.958;17.726;2023-12-07T04:16:10;-9.40;99.90
10431;DHT22;5262;59.958;17.726;2023-12-07T04:18:56;-9.40;99.90
10431;DHT22;5262;59.958;17.726;2023-12-07T04:21:42;-9.30;99.90
10431;DHT22;5262;59.958;17.726;2023-12-07T04:24:27;-9.40;99.90
10431;DHT22;5262;59.958;17.726;2023-12-07T04:27:13;-9.20;99.90
10431;DHT22;5262;59.958;17.726;2023-12-07T04:29:58;-9.20;99.90
10431;DHT22;5262;59.958;17.726;2023-12-07T04:32:44;-9.20;99.90
10431;DHT22;5262;59.958;17.726;2023-12-07T04:35:30;-9.20;99.90
10431;DHT22;5262;59.958;17.726;2023-12-07T04:38:16;-9.20;99.90
10431;DHT22;5262;59.958;17.726;2023-12-07T04:40:41;-9.10;99.90
10431;DHT22;5262;59.958;17.726;2023-12-07T04:43:11;-9.10;99.90
10431;DHT22;5262;59.958;17.726;2023-12-07T04:45:37;-9.10;99.90
10431;DHT22;5262;59.958;17.726;2023-12-07T04:48:04;-9.00;99.90
10431;DHT22;5262;59.958;17.726;2023-12-07T04:50:29;-9.00;99.90
10431;DHT22;5262;59.958;17.726;2023-12-07T04:52:55;-9.00;99.90
10431;DHT22;5262;59.958;17.726;2023-12-07T04:55:20;-9.00;99.90
10431;DHT22;5262;59.958;17.726;2023-12-07T04:57:46;-9.00;99.90
10431;DHT22;5262;59.958;17.726;2023-12-07T05:00:12;-9.00;99.90
10431;DHT22;5262;59.958;17.726;2023-12-07T05:02:38;-9.10;99.90
10431;DHT22;5262;59.958;17.726;2023-12-07T05:05:05;-9.00;99.90
10431;DHT22;5262;59.958;17.726;2023-12-07T05:07:30;-9.00;99.90
10431;DHT22;5262;59.958;17.726;2023-12-07T05:09:56;-9.00;99.90
10431;DHT22;5262;59.958;17.726;2023-12-07T05:12:22;-8.90;99.90
10431;DHT22;5262;59.958;17.726;2023-12-07T05:14:47;-9.00;99.90
10431;DHT22;5262;59.958;17.726;2023-12-07T05:17:13;-9.00;99.90
10431;DHT22;5262;59.958;17.726;2023-12-07T05:19:39;-8.90;99.90
10431;DHT22;5262;59.958;17.726;2023-12-07T05:22:05;-9.00;99.90
10431;DHT22;5262;59.958;17.726;2023-12-07T05:24:31;-8.90;99.90
10431;DHT22;5262;59.958;17.726;2023-12-07T05:26:59;-8.90;99.90
10431;DHT22;5262;59.958;17.726;2023-12-07T05:29:25;-8.80;99.90
10431;DHT22;5262;59.958;17.726;2023-12-07T05:31:51;-8.70;99.90
10431;DHT22;5262;59.958;17.726;2023-12-07T05:34:17;-8.70;99.90
10431;DHT22;5262;59.958;17.726;2023-12-07T05:36:43;-8.60;99.90
10431;DHT22;5262;59.958;17.726;2023-12-07T05:39:09;-8.60;99.90
10431;DHT22;5262;59.958;17.726;2023-12-07T05:41:34;-8.60;99.90
10431;DHT22;5262;59.958;17.726;2023-12-07T05:44:00;-8.60;99.90
10431;DHT22;5262;59.958;17.726;2023-12-07T05:46:26;-8.60;99.90
10431;DHT22;5262;59.958;17.726;2023-12-07T05:48:52;-8.60;99.90
10431;DHT22;5262;59.958;17.726;2023-12-07T05:51:17;-8.60;99.90
10431;DHT22;5262;59.958;17.726;2023-12-07T05:53:44;-8.60;99.90
10431;DHT22;5262;59.958;17.726;2023-12-07T05:56:10;-8.70;99.90
10431;DHT22;5262;59.958;17.726;2023-12-07T05:58:36;-8.60;99.90
10431;DHT22;5262;59.958;17.726;2023-12-07T06:01:01;-8.60;99.90
10431;DHT22;5262;59.958;17.726;2023-12-07T06:03:28;-8.60;99.90
10431;DHT22;5262;59.958;17.726;2023-12-07T06:05:54;-8.60;99.90
10431;DHT22;5262;59.958;17.726;2023-12-07T06:08:20;-8.60;99.90
10431;DHT22;5262;59.958;17.726;2023-12-07T06:10:45;-8.60;99.90
10431;DHT22;5262;59.958;17.726;2023-12-07T06:13:12;-8.50;99.90
10431;DHT22;5262;59.958;17.726;2023-12-07T06:15:39;-8.60;99.90
10431;DHT22;5262;59.958;17.726;2023-12-07T06:18:04;-8.70;99.90
10431;DHT22;5262;59.958;17.726;2023-12-07T06:20:31;-8.70;99.90
10431;DHT22;5262;59.958;17.726;2023-12-07T06:22:56;-8.60;99.90
10431;DHT22;5262;59.958;17.726;2023-12-07T06:25:23;-8.60;99.90
10431;DHT22;5262;59.958;17.726;2023-12-07T06:27:49;-8.60;99.90
10431;DHT22;5262;59.958;17.726;2023-12-07T06:30:14;-8.60;99.90
10431;DHT22;5262;59.958;17.726;2023-12-07T06:32:40;-8.60;99.90
10431;DHT22;5262;59.958;17.726;2023-12-07T06:35:06;-8.60;99.90
10431;DHT22;5262;59.958;17.726;2023-12-07T06:37:32;-8.50;99.90
10431;DHT22;5262;59.958;17.726;2023-12-07T06:39:57;-8.50;99.90
10431;DHT22;5262;59.958;17.726;2023-12-07T06:42:24;-8.50;99.90
10431;DHT22;5262;59.958;17.726;2023-12-07T06:44:50;-8.50;99.90
10431;DHT22;5262;59.958;17.726;2023-12-07T06:47:16;-8.50;99.90
10431;DHT22;5262;59.958;17.726;2023-12-07T06:49:41;-8.60;99.90
10431;DHT22;5262;59.958;17.726;2023-12-07T06:52:07;-8.60;99.90
10431;DHT22;5262;59.958;17.726;2023-12-07T06:54:34;-8.60;99.90
10431;DHT22;5262;59.958;17.726;2023-12-07T06:57:00;-8.60;99.90
10431;DHT22;5262;59.958;17.726;2023-12-07T06:59:26;-8.50;99.90
10431;DHT22;5262;59.958;17.726;2023-12-07T07:01:51;-8.50;99.90
10431;DHT22;5262;59.958;17.726;2023-12-07T07:04:17;-8.50;99.90
10431;DHT22;5262;59.958;17.726;2023-12-07T07:06:42;-8.60;99.90
10431;DHT22;5262;59.958;17.726;2023-12-07T07:09:08;-8.60;99.90
10431;DHT22;5262;59.958;17.726;2023-12-07T07:11:34;-8.50;99.90
10431;DHT22;5262;59.958;17.726;2023-12-07T07:14:00;-8.50;99.90
10431;DHT22;5262;59.958;17.726;2023-12-07T07:16:26;-8.40;99.90
10431;DHT22;5262;59.958;17.726;2023-12-07T07:18:52;-8.40;99.90
10431;DHT22;5262;59.958;17.726;2023-12-07T07:21:17;-8.40;99.90
10431;DHT22;5262;59.958;17.726;2023-12-07T07:23:45;-8.40;99.90
10431;DHT22;5262;59.958;17.726;2023-12-07T07:26:11;-8.40;99.90
10431;DHT22;5262;59.958;17.726;2023-12-07T07:28:37;-8.30;99.90
10431;DHT22;5262;59.958;17.726;2023-12-07T07:31:02;-8.30;99.90
10431;DHT22;5262;59.958;17.726;2023-12-07T07:33:28;-8.30;99.90
10431;DHT22;5262;59.958;17.726;2023-12-07T07:35:54;-8.20;99.90
10431;DHT22;5262;59.958;17.726;2023-12-07T07:38:20;-8.20;99.90
10431;DHT22;5262;59.958;17.726;2023-12-07T07:40:46;-8.20;99.90
10431;DHT22;5262;59.958;17.726;2023-12-07T07:43:12;-8.10;99.90
10431;DHT22;5262;59.958;17.726;2023-12-07T07:45:38;-8.10;99.90
10431;DHT22;5262;59.958;17.726;2023-12-07T07:48:04;-8.00;99.90
10431;DHT22;5262;59.958;17.726;2023-12-07T07:50:29;-8.00;99.90
10431;DHT22;5262;59.958;17.726;2023-12-07T07:52:55;-8.00;99.90
10431;DHT22;5262;59.958;17.726;2023-12-07T07:55:21;-7.90;99.90
10431;DHT22;5262;59.958;17.726;2023-12-07T07:57:47;-7.90;99.90
10431;DHT22;5262;59.958;17.726;2023-12-07T08:00:13;-7.80;99.90
10431;DHT22;5262;59.958;17.726;2023-12-07T08:02:39;-7.80;99.90
10431;DHT22;5262;59.958;17.726;2023-12-07T08:05:05;-7.80;99.90
10431;DHT22;5262;59.958;17.726;2023-12-07T08:07:30;-7.70;99.90
10431;DHT22;5262;59.958;17.726;2023-12-07T08:09:56;-7.80;99.90
10431;DHT22;5262;59.958;17.726;2023-12-07T08:12:22;-7.70;99.90
10431;DHT22;5262;59.958;17.726;2023-12-07T08:14:50;-7.70;99.90
10431;DHT22;5262;59.958;17.726;2023-12-07T08:17:16;-7.70;99.90
10431;DHT22;5262;59.958;17.726;2023-12-07T08:19:42;-7.60;99.90
10431;DHT22;5262;59.958;17.726;2023-12-07T08:22:08;-7.60;99.90
10431;DHT22;5262;59.958;17.726;2023-12-07T08:24:34;-7.70;99.90
10431;DHT22;5262;59.958;17.726;2023-12-07T08:26:59;-7.60;99.90
10431;DHT22;5262;59.958;17.726;2023-12-07T08:29:25;-7.50;99.90
10431;DHT22;5262;59.958;17.726;2023-12-07T08:31:51;-7.50;99.90
10431;DHT22;5262;59.958;17.726;2023-12-07T08:34:17;-7.50;99.90
10431;DHT22;5262;59.958;17.726;2023-12-07T08:36:42;-7.50;99.90
10431;DHT22;5262;59.958;17.726;2023-12-07T08:39:08;-7.50;99.90
10431;DHT22;5262;59.958;17.726;2023-12-07T08:41:37;-7.50;99.90
10431;DHT22;5262;59.958;17.726;2023-12-07T08:44:04;-7.40;99.90
10431;DHT22;5262;59.958;17.726;2023-12-07T08:46:30;-7.30;99.90
10431;DHT22;5262;59.958;17.726;2023-12-07T08:48:55;-7.30;99.90
10431;DHT22;5262;59.958;17.726;2023-12-07T08:51:21;-7.20;99.90
10431;DHT22;5262;59.958;17.726;2023-12-07T08:53:47;-7.20;99.90
10431;DHT22;5262;59.958;17.726;2023-12-07T08:56:13;-7.10;99.90
10431;DHT22;5262;59.958;17.726;2023-12-07T08:58:39;-7.10;99.90
10431;DHT22;5262;59.958;17.726;2023-12-07T09:01:05;-7.10;99.90
10431;DHT22;5262;59.958;17.726;2023-12-07T09:03:33;-7.00;99.90
10431;DHT22;5262;59.958;17.726;2023-12-07T09:06:00;-7.00;99.90
10431;DHT22;5262;59.958;17.726;2023-12-07T09:08:26;-6.90;99.90
10431;DHT22;5262;59.958;17.726;2023-12-07T09:10:51;-6.90;99.90
10431;DHT22;5262;59.958;17.726;2023-12-07T09:13:17;-6.80;99.90
10431;DHT22;5262;59.958;17.726;2023-12-07T09:15:43;-6.80;99.90
10431;DHT22;5262;59.958;17.726;2023-12-07T09:18:09;-6.80;99.90
10431;DHT22;5262;59.958;17.726;2023-12-07T09:20:39;-6.70;99.90
10431;DHT22;5262;59.958;17.726;2023-12-07T09:23:11;-6.70;99.90
10431;DHT22;5262;59.958;17.726;2023-12-07T09:25:38;-6.60;99.90
10431;DHT22;5262;59.958;17.726;2023-12-07T09:28:04;-6.50;99.90
10431;DHT22;5262;59.958;17.726;2023-12-07T09:30:30;-6.50;99.90
10431;DHT22;5262;59.958;17.726;2023-12-07T09:32:55;-6.50;99.90
10431;DHT22;5262;59.958;17.726;2023-12-07T09:35:21;-6.50;99.90
10431;DHT22;5262;59.958;17.726;2023-12-07T09:37:48;-6.50;99.90
10431;DHT22;5262;59.958;17.726;2023-12-07T09:40:18;-6.40;99.90
10431;DHT22;5262;59.958;17.726;2023-12-07T09:42:45;-6.30;99.90
10431;DHT22;5262;59.958;17.726;2023-12-07T09:45:11;-6.30;99.90
10431;DHT22;5262;59.958;17.726;2023-12-07T09:47:38;-6.20;99.90
10431;DHT22;5262;59.958;17.726;2023-12-07T09:50:07;-6.20;99.90
10431;DHT22;5262;59.958;17.726;2023-12-07T09:52:34;-6.20;99.90
10431;DHT22;5262;59.958;17.726;2023-12-07T09:55:02;-6.20;99.90
10431;DHT22;5262;59.958;17.726;2023-12-07T09:57:28;-6.20;99.90
10431;DHT22;5262;59.958;17.726;2023-12-07T09:59:55;-6.10;99.90
10431;DHT22;5262;59.958;17.726;2023-12-07T10:02:21;-6.00;99.90
10431;DHT22;5262;59.958;17.726;2023-12-07T10:04:47;-6.00;99.90
10431;DHT22;5262;59.958;17.726;2023-12-07T10:07:13;-6.00;99.90
10431;DHT22;5262;59.958;17.726;2023-12-07T10:09:40;-6.00;99.90
10431;DHT22;5262;59.958;17.726;2023-12-07T10:12:08;-6.00;99.90
10431;DHT22;5262;59.958;17.726;2023-12-07T10:14:34;-5.90;99.90
10431;DHT22;5262;59.958;17.726;2023-12-07T10:17:00;-5.90;99.90
10431;DHT22;5262;59.958;17.726;2023-12-07T10:19:26;-5.80;99.90
10431;DHT22;5262;59.958;17.726;2023-12-07T10:21:53;-5.90;99.90
10431;DHT22;5262;59.958;17.726;2023-12-07T10:24:24;-5.90;99.90
10431;DHT22;5262;59.958;17.726;2023-12-07T10:26:51;-5.80;99.90
10431;DHT22;5262;59.958;17.726;2023-12-07T10:29:18;-5.70;99.90
10431;DHT22;5262;59.958;17.726;2023-12-07T10:31:45;-5.70;99.90
10431;DHT22;5262;59.958;17.726;2023-12-07T10:34:12;-5.70;99.90
10431;DHT22;5262;59.958;17.726;2023-12-07T10:36:38;-5.70;99.90
10431;DHT22;5262;59.958;17.726;2023-12-07T10:39:03;-5.60;99.90
10431;DHT22;5262;59.958;17.726;2023-12-07T10:41:33;-5.60;99.90
10431;DHT22;5262;59.958;17.726;2023-12-07T10:44:04;-5.60;99.90
10431;DHT22;5262;59.958;17.726;2023-12-07T10:46:33;-5.60;99.90
10431;DHT22;5262;59.958;17.726;2023-12-07T10:49:07;-5.60;99.90
10431;DHT22;5262;59.958;17.726;2023-12-07T10:51:58;-5.60;99.90
10431;DHT22;5262;59.958;17.726;2023-12-07T10:55:02;-5.50;99.90
10431;DHT22;5262;59.958;17.726;2023-12-07T10:57:21;-5.40;99.90
10431;DHT22;5262;59.958;17.726;2023-12-07T10:59:48;-5.40;99.90
10431;DHT22;5262;59.958;17.726;2023-12-07T11:02:16;-5.40;99.90
10431;DHT22;5262;59.958;17.726;2023-12-07T11:04:42;-5.30;99.90
10431;DHT22;5262;59.958;17.726;2023-12-07T11:07:12;-5.30;99.90
10431;DHT22;5262;59.958;17.726;2023-12-07T11:09:47;-5.30;99.90
10431;DHT22;5262;59.958;17.726;2023-12-07T11:12:30;-5.20;99.90
10431;DHT22;5262;59.958;17.726;2023-12-07T11:14:59;-5.20;99.90
10431;DHT22;5262;59.958;17.726;2023-12-07T11:17:24;-5.20;99.90
10431;DHT22;5262;59.958;17.726;2023-12-07T11:19:51;-5.20;99.90
10431;DHT22;5262;59.958;17.726;2023-12-07T11:22:20;-5.20;99.90
10431;DHT22;5262;59.958;17.726;2023-12-07T11:24:53;-5.10;99.90
10431;DHT22;5262;59.958;17.726;2023-12-07T11:27:19;-5.10;99.90
10431;DHT22;5262;59.958;17.726;2023-12-07T11:29:46;-5.20;99.90
10431;DHT22;5262;59.958;17.726;2023-12-07T11:32:13;-5.10;99.90
10431;DHT22;5262;59.958;17.726;2023-12-07T11:34:41;-5.00;99.90
10431;DHT22;5262;59.958;17.726;2023-12-07T11:37:07;-5.10;99.90
10431;DHT22;5262;59.958;17.726;2023-12-07T11:39:37;-5.00;99.90
10431;DHT22;5262;59.958;17.726;2023-12-07T11:42:09;-5.00;99.90
10431;DHT22;5262;59.958;17.726;2023-12-07T11:44:37;-5.00;99.90
10431;DHT22;5262;59.958;17.726;2023-12-07T11:47:03;-4.90;99.90
10431;DHT22;5262;59.958;17.726;2023-12-07T11:49:30;-4.90;99.90
10431;DHT22;5262;59.958;17.726;2023-12-07T11:51:57;-4.90;99.90
10431;DHT22;5262;59.958;17.726;2023-12-07T11:54:23;-5.00;99.90
10431;DHT22;5262;59.958;17.726;2023-12-07T11:56:56;-4.90;99.90
10431;DHT22;5262;59.958;17.726;2023-12-07T11:59:23;-4.90;99.90
10431;DHT22;5262;59.958;17.726;2023-12-07T12:01:51;-4.80;99.90
10431;DHT22;5262;59.958;17.726;2023-12-07T12:04:17;-4.80;99.90
10431;DHT22;5262;59.958;17.726;2023-12-07T12:06:44;-4.80;99.90
10431;DHT22;5262;59.958;17.726;2023-12-07T12:09:12;-4.80;99.90
10431;DHT22;5262;59.958;17.726;2023-12-07T12:11:47;-4.80;99.90
10431;DHT22;5262;59.958;17.726;2023-12-07T12:14:17;-4.80;99.90
10431;DHT22;5262;59.958;17.726;2023-12-07T12:16:43;-4.70;99.90
10431;DHT22;5262;59.958;17.726;2023-12-07T12:19:10;-4.70;99.90
10431;DHT22;5262;59.958;17.726;2023-12-07T12:21:38;-4.70;99.90
10431;DHT22;5262;59.958;17.726;2023-12-07T12:24:05;-4.70;99.90
10431;DHT22;5262;59.958;17.726;2023-12-07T12:26:33;-4.60;99.90
10431;DHT22;5262;59.958;17.726;2023-12-07T12:29:00;-4.60;99.90
10431;DHT22;5262;59.958;17.726;2023-12-07T12:31:25;-4.50;99.90
10431;DHT22;5262;59.958;17.726;2023-12-07T12:33:51;-4.50;99.90
10431;DHT22;5262;59.958;17.726;2023-12-07T12:36:19;-4.50;99.90
10431;DHT22;5262;59.958;17.726;2023-12-07T12:38:49;-4.50;99.90
10431;DHT22;5262;59.958;17.726;2023-12-07T12:41:20;-4.50;99.90
10431;DHT22;5262;59.958;17.726;2023-12-07T12:43:46;-4.50;99.90
10431;DHT22;5262;59.958;17.726;2023-12-07T12:46:12;-4.50;99.90
10431;DHT22;5262;59.958;17.726;2023-12-07T12:48:56;-4.40;99.90
10431;DHT22;5262;59.958;17.726;2023-12-07T12:51:28;-4.50;99.90
10431;DHT22;5262;59.958;17.726;2023-12-07T12:53:55;-4.50;99.90
10431;DHT22;5262;59.958;17.726;2023-12-07T12:56:22;-4.40;99.90
10431;DHT22;5262;59.958;17.726;2023-12-07T12:58:52;-4.50;99.90
10431;DHT22;5262;59.958;17.726;2023-12-07T13:01:19;-4.40;99.90
10431;DHT22;5262;59.958;17.726;2023-12-07T13:03:46;-4.40;99.90
10431;DHT22;5262;59.958;17.726;2023-12-07T13:06:16;-4.50;99.90
10431;DHT22;5262;59.958;17.726;2023-12-07T13:08:46;-4.50;99.90
10431;DHT22;5262;59.958;17.726;2023-12-07T13:11:15;-4.50;99.90
10431;DHT22;5262;59.958;17.726;2023-12-07T13:13:42;-4.40;99.90
10431;DHT22;5262;59.958;17.726;2023-12-07T13:16:07;-4.50;99.90
10431;DHT22;5262;59.958;17.726;2023-12-07T13:18:33;-4.50;99.90
10431;DHT22;5262;59.958;17.726;2023-12-07T13:20:58;-4.40;99.90
10431;DHT22;5262;59.958;17.726;2023-12-07T13:23:25;-4.40;99.90
10431;DHT22;5262;59.958;17.726;2023-12-07T13:25:51;-4.40;99.90
10431;DHT22;5262;59.958;17.726;2023-12-07T13:28:17;-4.40;99.90
10431;DHT22;5262;59.958;17.726;2023-12-07T13:30:42;-4.40;99.90
10431;DHT22;5262;59.958;17.726;2023-12-07T13:33:08;-4.30;99.90
10431;DHT22;5262;59.958;17.726;2023-12-07T13:35:34;-4.30;99.90
10431;DHT22;5262;59.958;17.726;2023-12-07T13:38:00;-4.30;99.90
10431;DHT22;5262;59.958;17.726;2023-12-07T13:40:26;-4.30;99.90
10431;DHT22;5262;59.958;17.726;2023-12-07T13:42:52;-4.30;99.90
10431;DHT22;5262;59.958;17.726;2023-12-07T13:45:18;-4.30;99.90
10431;DHT22;5262;59.958;17.726;2023-12-07T13:47:45;-4.30;99.90
10431;DHT22;5262;59.958;17.726;2023-12-07T13:50:11;-4.20;99.90
10431;DHT22;5262;59.958;17.726;2023-12-07T13:52:38;-4.30;99.90
10431;DHT22;5262;59.958;17.726;2023-12-07T13:55:04;-4.30;99.90
10431;DHT22;5262;59.958;17.726;2023-12-07T13:57:30;-4.30;99.90
10431;DHT22;5262;59.958;17.726;2023-12-07T13:59:55;-4.20;99.90
10431;DHT22;5262;59.958;17.726;2023-12-07T14:02:22;-4.20;99.90
10431;DHT22;5262;59.958;17.726;2023-12-07T14:04:48;-4.30;99.90
10431;DHT22;5262;59.958;17.726;2023-12-07T14:07:18;-4.20;99.90
10431;DHT22;5262;59.958;17.726;2023-12-07T14:09:46;-4.20;99.90
10431;DHT22;5262;59.958;17.726;2023-12-07T14:12:13;-4.20;99.90
10431;DHT22;5262;59.958;17.726;2023-12-07T14:14:40;-4.10;99.90
10431;DHT22;5262;59.958;17.726;2023-12-07T14:17:06;-4.10;99.90
10431;DHT22;5262;59.958;17.726;2023-12-07T14:19:32;-4.00;99.90
10431;DHT22;5262;59.958;17.726;2023-12-07T14:22:16;-4.00;99.90
10431;DHT22;5262;59.958;17.726;2023-12-07T14:24:42;-4.00;99.90
10431;DHT22;5262;59.958;17.726;2023-12-07T14:27:08;-4.00;99.90
10431;DHT22;5262;59.958;17.726;2023-12-07T14:29:34;-3.90;99.90
10431;DHT22;5262;59.958;17.726;2023-12-07T14:32:00;-3.90;99.90
10431;DHT22;5262;59.958;17.726;2023-12-07T14:34:26;-3.90;99.90
10431;DHT22;5262;59.958;17.726;2023-12-07T14:36:53;-3.80;99.90
10431;DHT22;5262;59.958;17.726;2023-12-07T14:39:19;-3.80;99.90
10431;DHT22;5262;59.958;17.726;2023-12-07T14:41:49;-3.80;99.90
10431;DHT22;5262;59.958;17.726;2023-12-07T14:44:18;-3.80;99.90
10431;DHT22;5262;59.958;17.726;2023-12-07T14:46:45;-3.70;99.90
10431;DHT22;5262;59.958;17.726;2023-12-07T14:49:18;-3.70;99.90
10431;DHT22;5262;59.958;17.726;2023-12-07T14:51:49;-3.60;99.90
10431;DHT22;5262;59.958;17.726;2023-12-07T14:54:16;-3.60;99.90
10431;DHT22;5262;59.958;17.726;2023-12-07T14:56:42;-3.70;99.90
10431;DHT22;5262;59.958;17.726;2023-12-07T14:59:09;-3.60;99.90
10431;DHT22;5262;59.958;17.726;2023-12-07T15:01:38;-3.60;99.90
10431;DHT22;5262;59.958;17.726;2023-12-07T15:04:04;-3.60;99.90
10431;DHT22;5262;59.958;17.726;2023-12-07T15:06:31;-3.60;99.90
10431;DHT22;5262;59.958;17.726;2023-12-07T15:08:56;-3.50;99.90
10431;DHT22;5262;59.958;17.726;2023-12-07T15:11:22;-3.40;99.90
10431;DHT22;5262;59.958;17.726;2023-12-07T15:13:48;-3.50;99.90
10431;DHT22;5262;59.958;17.726;2023-12-07T15:16:14;-3.40;99.90
10431;DHT22;5262;59.958;17.726;2023-12-07T15:18:40;-3.40;99.90
10431;DHT22;5262;59.958;17.726;2023-12-07T15:21:13;-3.30;99.90
10431;DHT22;5262;59.958;17.726;2023-12-07T15:23:42;-3.30;99.90
10431;DHT22;5262;59.958;17.726;2023-12-07T15:26:09;-3.30;99.90
10431;DHT22;5262;59.958;17.726;2023-12-07T15:28:36;-3.30;99.90